Hlavní strana
METAR-TAF:

METAR-TAF

Letiště :

Berlevåg, Norsko

zeměpisná šířka: 70-52N, zeměpisná délka: 029-02E, výška: 1 m

Aktuální stav počasí

Zpráva byla vytvořena před 33 minutami, v 20:50 UTC
Jihozápadní vítr 17 kt
Teplota 1°C
Vlhkost vzduchu 80%
Tlak 986 hPa
Viditelnost 10 km a více
Skoro jasno ve výšce 3000 ft
Polojasno ve výšce 8000 ft

METAR: ENBV 252050Z 23017KT 9999 FEW030 SCT080 01/M02 Q0986

Čas: 22:23 (21:23 UTC)

Předpověď počasí

Zpráva byla vytvořena před 4 hodinami a 23 minutami, v 17:00 UTC
Předpověď platná od 25 v 18 UTC do 25 v 22 UTC
Jihozápadní vítr 20 kt
Viditelnost 10 km a více
Skoro jasno ve výšce 1500 ft
Oblačno až skoro zataženo ve výšce 3500 ft
Dočasný
od 25 v 18 UTC do 25 v 22 UTC
Viditelnost: 4000 m
Oblačno až skoro zataženo ve výšce 1200 ft
slabé sněhové přeháňky, nízko zvířený sníh

TAF: ENBV 251700Z 2518/2522 22020KT 9999 FEW015 BKN035 TEMPO 2518/2522 4000 -SHSN DRSN BKN012

Stav a předpovědi počasí z více než 4 000 letišť (zprávy METAR a TAF).

Červené a žluté tečky na mapě představují dostupné meteorologické stanice.

Když kurzor umístíte na tečku, zobrazí se název stanice.

Pak kliknutím zobrazíte stav a předpověď počasí.

Chcete-li změnit mapu, kliknutím na zelené tlačítko se znaménkem +mapu přiblížíte, kliknutím na zelené tlačítko se znaménkem – mapu oddálíte a kliknutím na zelené šipky přejdete na sousední mapy.


METAR-TAF: